sensor_id;sensor_type;location;lat;lon;timestamp;P1;durP1;ratioP1;P2;durP2;ratioP2
72205;SDS011;60111;48.286;7.812;2023-09-19T00:01:10;4.17;;;1.00;;
72205;SDS011;60111;48.286;7.812;2023-09-19T00:03:43;3.92;;;1.30;;
72205;SDS011;60111;48.286;7.812;2023-09-19T00:06:15;1.93;;;1.43;;
72205;SDS011;60111;48.286;7.812;2023-09-19T00:08:48;1.75;;;1.20;;
72205;SDS011;60111;48.286;7.812;2023-09-19T00:11:21;2.47;;;1.20;;
72205;SDS011;60111;48.286;7.812;2023-09-19T00:13:55;1.72;;;1.10;;
72205;SDS011;60111;48.286;7.812;2023-09-19T00:19:03;3.08;;;1.32;;
72205;SDS011;60111;48.286;7.812;2023-09-19T00:24:09;5.97;;;1.30;;
72205;SDS011;60111;48.286;7.812;2023-09-19T00:26:42;4.28;;;1.25;;
72205;SDS011;60111;48.286;7.812;2023-09-19T00:29:17;2.40;;;1.23;;
72205;SDS011;60111;48.286;7.812;2023-09-19T00:31:49;2.27;;;1.30;;
72205;SDS011;60111;48.286;7.812;2023-09-19T00:34:22;3.33;;;1.60;;
72205;SDS011;60111;48.286;7.812;2023-09-19T00:36:54;3.77;;;1.32;;
72205;SDS011;60111;48.286;7.812;2023-09-19T00:39:27;10.15;;;1.60;;
72205;SDS011;60111;48.286;7.812;2023-09-19T00:44:34;3.45;;;1.35;;
72205;SDS011;60111;48.286;7.812;2023-09-19T00:47:08;4.90;;;1.57;;
72205;SDS011;60111;48.286;7.812;2023-09-19T00:52:15;4.03;;;1.57;;
72205;SDS011;60111;48.286;7.812;2023-09-19T00:54:50;3.20;;;1.57;;
72205;SDS011;60111;48.286;7.812;2023-09-19T00:57:23;3.25;;;1.20;;
72205;SDS011;60111;48.286;7.812;2023-09-19T00:59:56;2.50;;;1.60;;
72205;SDS011;60111;48.286;7.812;2023-09-19T01:02:29;6.83;;;1.60;;
72205;SDS011;60111;48.286;7.812;2023-09-19T01:05:03;3.00;;;1.30;;
72205;SDS011;60111;48.286;7.812;2023-09-19T01:07:54;7.12;;;1.70;;
72205;SDS011;60111;48.286;7.812;2023-09-19T01:10:27;2.75;;;1.35;;
72205;SDS011;60111;48.286;7.812;2023-09-19T01:13:03;6.12;;;1.20;;
72205;SDS011;60111;48.286;7.812;2023-09-19T01:15:49;2.90;;;1.30;;
72205;SDS011;60111;48.286;7.812;2023-09-19T01:21:12;3.40;;;1.35;;
72205;SDS011;60111;48.286;7.812;2023-09-19T01:30:18;3.53;;;1.40;;
72205;SDS011;60111;48.286;7.812;2023-09-19T01:32:53;4.47;;;1.47;;
72205;SDS011;60111;48.286;7.812;2023-09-19T01:35:28;2.37;;;1.40;;
72205;SDS011;60111;48.286;7.812;2023-09-19T01:38:01;3.05;;;1.30;;
72205;SDS011;60111;48.286;7.812;2023-09-19T01:40:33;1.40;;;1.27;;
72205;SDS011;60111;48.286;7.812;2023-09-19T01:43:12;3.95;;;1.40;;
72205;SDS011;60111;48.286;7.812;2023-09-19T01:45:52;8.75;;;1.80;;
72205;SDS011;60111;48.286;7.812;2023-09-19T01:51:11;4.12;;;1.40;;
72205;SDS011;60111;48.286;7.812;2023-09-19T01:54:00;5.05;;;1.50;;
72205;SDS011;60111;48.286;7.812;2023-09-19T01:56:36;4.83;;;1.30;;
72205;SDS011;60111;48.286;7.812;2023-09-19T01:59:11;3.47;;;1.27;;
72205;SDS011;60111;48.286;7.812;2023-09-19T02:01:48;7.12;;;1.40;;
72205;SDS011;60111;48.286;7.812;2023-09-19T02:07:04;3.90;;;1.40;;
72205;SDS011;60111;48.286;7.812;2023-09-19T02:09:39;3.47;;;1.40;;
72205;SDS011;60111;48.286;7.812;2023-09-19T02:12:13;3.08;;;1.15;;
72205;SDS011;60111;48.286;7.812;2023-09-19T02:14:46;4.05;;;1.42;;
72205;SDS011;60111;48.286;7.812;2023-09-19T02:17:19;2.35;;;1.20;;
72205;SDS011;60111;48.286;7.812;2023-09-19T02:19:53;3.42;;;0.80;;
72205;SDS011;60111;48.286;7.812;2023-09-19T02:22:27;3.77;;;1.30;;
72205;SDS011;60111;48.286;7.812;2023-09-19T02:25:00;4.30;;;1.57;;
72205;SDS011;60111;48.286;7.812;2023-09-19T02:27:34;3.20;;;1.22;;
72205;SDS011;60111;48.286;7.812;2023-09-19T02:30:08;6.67;;;1.42;;
72205;SDS011;60111;48.286;7.812;2023-09-19T02:32:41;3.13;;;1.50;;
72205;SDS011;60111;48.286;7.812;2023-09-19T02:35:13;4.12;;;1.45;;
72205;SDS011;60111;48.286;7.812;2023-09-19T02:37:47;5.58;;;1.32;;
72205;SDS011;60111;48.286;7.812;2023-09-19T02:40:20;2.10;;;1.02;;
72205;SDS011;60111;48.286;7.812;2023-09-19T02:42:56;1.77;;;1.07;;
72205;SDS011;60111;48.286;7.812;2023-09-19T02:45:30;1.47;;;0.90;;
72205;SDS011;60111;48.286;7.812;2023-09-19T02:48:03;6.00;;;1.35;;
72205;SDS011;60111;48.286;7.812;2023-09-19T02:50:36;2.05;;;1.20;;
72205;SDS011;60111;48.286;7.812;2023-09-19T02:53:10;3.05;;;1.10;;
72205;SDS011;60111;48.286;7.812;2023-09-19T02:55:44;2.37;;;1.10;;
72205;SDS011;60111;48.286;7.812;2023-09-19T03:00:50;5.70;;;1.10;;
72205;SDS011;60111;48.286;7.812;2023-09-19T03:03:23;4.87;;;1.17;;
72205;SDS011;60111;48.286;7.812;2023-09-19T03:05:56;3.70;;;1.10;;
72205;SDS011;60111;48.286;7.812;2023-09-19T03:08:29;2.07;;;1.20;;
72205;SDS011;60111;48.286;7.812;2023-09-19T03:11:09;5.17;;;1.07;;
72205;SDS011;60111;48.286;7.812;2023-09-19T03:13:42;2.27;;;1.30;;
72205;SDS011;60111;48.286;7.812;2023-09-19T03:16:16;2.92;;;1.10;;
72205;SDS011;60111;48.286;7.812;2023-09-19T03:18:49;2.17;;;1.10;;
72205;SDS011;60111;48.286;7.812;2023-09-19T03:21:22;1.80;;;1.13;;
72205;SDS011;60111;48.286;7.812;2023-09-19T03:23:56;3.17;;;1.30;;
72205;SDS011;60111;48.286;7.812;2023-09-19T03:26:29;3.80;;;1.12;;
72205;SDS011;60111;48.286;7.812;2023-09-19T03:29:03;1.72;;;0.88;;
72205;SDS011;60111;48.286;7.812;2023-09-19T03:31:40;1.93;;;1.00;;
72205;SDS011;60111;48.286;7.812;2023-09-19T03:34:13;3.83;;;1.07;;
72205;SDS011;60111;48.286;7.812;2023-09-19T03:36:46;4.72;;;1.10;;
72205;SDS011;60111;48.286;7.812;2023-09-19T03:39:19;5.12;;;1.40;;
72205;SDS011;60111;48.286;7.812;2023-09-19T03:41:51;3.27;;;0.95;;
72205;SDS011;60111;48.286;7.812;2023-09-19T03:44:24;2.40;;;1.12;;
72205;SDS011;60111;48.286;7.812;2023-09-19T03:46:56;2.58;;;1.00;;
72205;SDS011;60111;48.286;7.812;2023-09-19T03:49:29;1.95;;;1.00;;
72205;SDS011;60111;48.286;7.812;2023-09-19T03:52:02;3.47;;;0.90;;
72205;SDS011;60111;48.286;7.812;2023-09-19T03:54:35;1.63;;;1.20;;
72205;SDS011;60111;48.286;7.812;2023-09-19T03:57:08;4.80;;;1.30;;
72205;SDS011;60111;48.286;7.812;2023-09-19T03:59:41;3.37;;;1.10;;
72205;SDS011;60111;48.286;7.812;2023-09-19T04:02:17;4.53;;;1.47;;
72205;SDS011;60111;48.286;7.812;2023-09-19T04:04:55;2.83;;;0.93;;
72205;SDS011;60111;48.286;7.812;2023-09-19T04:07:28;3.33;;;1.00;;
72205;SDS011;60111;48.286;7.812;2023-09-19T04:10:00;2.20;;;1.10;;
72205;SDS011;60111;48.286;7.812;2023-09-19T04:12:34;4.45;;;1.15;;
72205;SDS011;60111;48.286;7.812;2023-09-19T04:15:07;1.75;;;1.00;;
72205;SDS011;60111;48.286;7.812;2023-09-19T04:17:42;2.03;;;1.17;;
72205;SDS011;60111;48.286;7.812;2023-09-19T04:20:15;4.35;;;1.20;;
72205;SDS011;60111;48.286;7.812;2023-09-19T04:22:50;2.00;;;1.25;;
72205;SDS011;60111;48.286;7.812;2023-09-19T04:25:23;7.80;;;1.72;;
72205;SDS011;60111;48.286;7.812;2023-09-19T04:27:57;5.05;;;1.30;;
72205;SDS011;60111;48.286;7.812;2023-09-19T04:30:30;2.08;;;1.30;;
72205;SDS011;60111;48.286;7.812;2023-09-19T04:33:02;4.50;;;1.30;;
72205;SDS011;60111;48.286;7.812;2023-09-19T04:35:36;1.90;;;1.00;;
72205;SDS011;60111;48.286;7.812;2023-09-19T04:38:09;1.90;;;1.10;;
72205;SDS011;60111;48.286;7.812;2023-09-19T04:40:42;3.73;;;1.40;;
72205;SDS011;60111;48.286;7.812;2023-09-19T04:43:15;2.85;;;1.10;;
72205;SDS011;60111;48.286;7.812;2023-09-19T04:45:48;2.98;;;1.07;;
72205;SDS011;60111;48.286;7.812;2023-09-19T04:48:22;3.37;;;1.27;;
72205;SDS011;60111;48.286;7.812;2023-09-19T04:51:00;2.98;;;1.37;;
72205;SDS011;60111;48.286;7.812;2023-09-19T04:53:32;3.95;;;1.10;;
72205;SDS011;60111;48.286;7.812;2023-09-19T04:56:05;4.20;;;1.20;;
72205;SDS011;60111;48.286;7.812;2023-09-19T04:58:38;6.53;;;1.13;;
72205;SDS011;60111;48.286;7.812;2023-09-19T05:01:11;3.27;;;1.30;;
72205;SDS011;60111;48.286;7.812;2023-09-19T05:03:45;3.10;;;1.45;;
72205;SDS011;60111;48.286;7.812;2023-09-19T05:06:19;3.10;;;1.30;;
72205;SDS011;60111;48.286;7.812;2023-09-19T05:08:52;4.30;;;1.30;;
72205;SDS011;60111;48.286;7.812;2023-09-19T05:11:25;2.33;;;1.07;;
72205;SDS011;60111;48.286;7.812;2023-09-19T05:13:58;4.97;;;1.17;;
72205;SDS011;60111;48.286;7.812;2023-09-19T05:16:32;3.80;;;1.20;;
72205;SDS011;60111;48.286;7.812;2023-09-19T05:19:05;2.62;;;1.25;;
72205;SDS011;60111;48.286;7.812;2023-09-19T05:21:38;4.93;;;1.30;;
72205;SDS011;60111;48.286;7.812;2023-09-19T05:24:11;5.85;;;1.50;;
72205;SDS011;60111;48.286;7.812;2023-09-19T05:26:45;3.17;;;1.70;;
72205;SDS011;60111;48.286;7.812;2023-09-19T05:29:17;3.02;;;1.32;;
72205;SDS011;60111;48.286;7.812;2023-09-19T05:31:50;4.72;;;1.22;;
72205;SDS011;60111;48.286;7.812;2023-09-19T05:34:24;3.58;;;1.32;;
72205;SDS011;60111;48.286;7.812;2023-09-19T05:36:58;4.47;;;1.42;;
72205;SDS011;60111;48.286;7.812;2023-09-19T05:39:31;4.67;;;1.50;;
72205;SDS011;60111;48.286;7.812;2023-09-19T05:42:03;2.20;;;1.30;;
72205;SDS011;60111;48.286;7.812;2023-09-19T05:44:37;3.02;;;1.50;;
72205;SDS011;60111;48.286;7.812;2023-09-19T05:47:10;3.27;;;1.80;;
72205;SDS011;60111;48.286;7.812;2023-09-19T05:52:15;5.05;;;1.45;;
72205;SDS011;60111;48.286;7.812;2023-09-19T05:54:48;4.15;;;1.55;;
72205;SDS011;60111;48.286;7.812;2023-09-19T05:57:21;6.70;;;1.45;;
72205;SDS011;60111;48.286;7.812;2023-09-19T05:59:55;8.05;;;1.60;;
72205;SDS011;60111;48.286;7.812;2023-09-19T06:02:28;7.78;;;1.55;;
72205;SDS011;60111;48.286;7.812;2023-09-19T06:05:00;2.52;;;1.40;;
72205;SDS011;60111;48.286;7.812;2023-09-19T06:07:34;8.00;;;1.83;;
72205;SDS011;60111;48.286;7.812;2023-09-19T06:10:08;3.98;;;1.37;;
72205;SDS011;60111;48.286;7.812;2023-09-19T06:12:41;3.93;;;1.30;;
72205;SDS011;60111;48.286;7.812;2023-09-19T06:15:16;5.42;;;1.82;;
72205;SDS011;60111;48.286;7.812;2023-09-19T06:17:54;5.60;;;1.42;;
72205;SDS011;60111;48.286;7.812;2023-09-19T06:20:28;3.12;;;1.60;;
72205;SDS011;60111;48.286;7.812;2023-09-19T06:23:01;3.75;;;1.50;;
72205;SDS011;60111;48.286;7.812;2023-09-19T06:28:07;4.72;;;1.50;;
72205;SDS011;60111;48.286;7.812;2023-09-19T06:30:42;2.12;;;1.37;;
72205;SDS011;60111;48.286;7.812;2023-09-19T06:33:15;2.92;;;1.50;;
72205;SDS011;60111;48.286;7.812;2023-09-19T06:35:49;4.25;;;1.57;;
72205;SDS011;60111;48.286;7.812;2023-09-19T06:40:55;3.05;;;1.52;;
72205;SDS011;60111;48.286;7.812;2023-09-19T06:43:29;5.78;;;1.50;;
72205;SDS011;60111;48.286;7.812;2023-09-19T06:46:03;2.77;;;1.62;;
72205;SDS011;60111;48.286;7.812;2023-09-19T06:48:38;3.10;;;1.35;;
72205;SDS011;60111;48.286;7.812;2023-09-19T06:51:10;1.50;;;1.30;;
72205;SDS011;60111;48.286;7.812;2023-09-19T06:53:43;6.17;;;1.40;;
72205;SDS011;60111;48.286;7.812;2023-09-19T06:56:15;3.83;;;2.10;;
72205;SDS011;60111;48.286;7.812;2023-09-19T06:58:49;2.27;;;1.70;;
72205;SDS011;60111;48.286;7.812;2023-09-19T07:01:22;5.83;;;1.70;;
72205;SDS011;60111;48.286;7.812;2023-09-19T07:03:56;4.43;;;1.30;;
72205;SDS011;60111;48.286;7.812;2023-09-19T07:06:28;2.30;;;1.60;;
72205;SDS011;60111;48.286;7.812;2023-09-19T07:09:01;2.85;;;1.65;;
72205;SDS011;60111;48.286;7.812;2023-09-19T07:11:34;3.87;;;1.80;;
72205;SDS011;60111;48.286;7.812;2023-09-19T07:14:08;5.58;;;1.35;;
72205;SDS011;60111;48.286;7.812;2023-09-19T07:16:44;3.87;;;1.40;;
72205;SDS011;60111;48.286;7.812;2023-09-19T07:19:18;4.95;;;1.22;;
72205;SDS011;60111;48.286;7.812;2023-09-19T07:21:50;5.77;;;1.73;;
72205;SDS011;60111;48.286;7.812;2023-09-19T07:24:23;2.12;;;1.40;;
72205;SDS011;60111;48.286;7.812;2023-09-19T07:26:57;1.95;;;1.30;;
72205;SDS011;60111;48.286;7.812;2023-09-19T07:29:30;3.47;;;1.40;;
72205;SDS011;60111;48.286;7.812;2023-09-19T07:32:02;3.12;;;1.12;;
72205;SDS011;60111;48.286;7.812;2023-09-19T07:34:37;3.40;;;1.07;;
72205;SDS011;60111;48.286;7.812;2023-09-19T07:37:11;1.12;;;1.02;;
72205;SDS011;60111;48.286;7.812;2023-09-19T07:39:45;1.92;;;1.32;;
72205;SDS011;60111;48.286;7.812;2023-09-19T07:42:18;2.00;;;1.17;;
72205;SDS011;60111;48.286;7.812;2023-09-19T07:44:50;6.92;;;1.17;;
72205;SDS011;60111;48.286;7.812;2023-09-19T07:47:24;1.60;;;1.13;;
72205;SDS011;60111;48.286;7.812;2023-09-19T07:49:58;1.60;;;1.30;;
72205;SDS011;60111;48.286;7.812;2023-09-19T07:52:33;2.85;;;1.10;;
72205;SDS011;60111;48.286;7.812;2023-09-19T07:55:06;2.33;;;1.20;;
72205;SDS011;60111;48.286;7.812;2023-09-19T07:57:40;1.92;;;1.12;;
72205;SDS011;60111;48.286;7.812;2023-09-19T08:00:13;3.33;;;1.12;;
72205;SDS011;60111;48.286;7.812;2023-09-19T08:02:46;2.87;;;1.10;;
72205;SDS011;60111;48.286;7.812;2023-09-19T08:05:19;1.32;;;1.12;;
72205;SDS011;60111;48.286;7.812;2023-09-19T08:07:53;5.53;;;1.13;;
72205;SDS011;60111;48.286;7.812;2023-09-19T08:13:00;1.80;;;1.10;;
72205;SDS011;60111;48.286;7.812;2023-09-19T08:15:33;2.02;;;1.20;;
72205;SDS011;60111;48.286;7.812;2023-09-19T08:18:06;1.92;;;0.95;;
72205;SDS011;60111;48.286;7.812;2023-09-19T08:20:41;1.30;;;1.15;;
72205;SDS011;60111;48.286;7.812;2023-09-19T08:23:16;4.80;;;1.00;;
72205;SDS011;60111;48.286;7.812;2023-09-19T08:25:50;3.40;;;1.30;;
72205;SDS011;60111;48.286;7.812;2023-09-19T08:30:56;1.20;;;1.10;;
72205;SDS011;60111;48.286;7.812;2023-09-19T08:33:38;3.98;;;1.35;;
72205;SDS011;60111;48.286;7.812;2023-09-19T08:36:11;2.93;;;1.30;;
72205;SDS011;60111;48.286;7.812;2023-09-19T08:38:45;5.20;;;1.47;;
72205;SDS011;60111;48.286;7.812;2023-09-19T08:41:17;2.70;;;1.25;;
72205;SDS011;60111;48.286;7.812;2023-09-19T08:43:50;2.95;;;1.20;;
72205;SDS011;60111;48.286;7.812;2023-09-19T08:46:23;4.97;;;1.27;;
72205;SDS011;60111;48.286;7.812;2023-09-19T08:49:08;4.28;;;1.00;;
72205;SDS011;60111;48.286;7.812;2023-09-19T08:51:42;2.08;;;1.12;;
72205;SDS011;60111;48.286;7.812;2023-09-19T08:54:26;2.70;;;1.20;;
72205;SDS011;60111;48.286;7.812;2023-09-19T08:59:37;2.90;;;1.43;;
72205;SDS011;60111;48.286;7.812;2023-09-19T09:02:14;2.47;;;1.62;;
72205;SDS011;60111;48.286;7.812;2023-09-19T09:04:49;2.03;;;1.10;;
72205;SDS011;60111;48.286;7.812;2023-09-19T09:07:22;3.37;;;1.20;;
72205;SDS011;60111;48.286;7.812;2023-09-19T09:09:55;5.13;;;1.57;;
72205;SDS011;60111;48.286;7.812;2023-09-19T09:12:29;3.00;;;1.10;;
72205;SDS011;60111;48.286;7.812;2023-09-19T09:15:02;2.13;;;0.90;;
72205;SDS011;60111;48.286;7.812;2023-09-19T09:17:35;2.57;;;1.30;;
72205;SDS011;60111;48.286;7.812;2023-09-19T09:20:08;1.70;;;1.23;;
72205;SDS011;60111;48.286;7.812;2023-09-19T09:22:56;5.07;;;1.33;;
72205;SDS011;60111;48.286;7.812;2023-09-19T09:25:25;4.20;;;1.10;;
72205;SDS011;60111;48.286;7.812;2023-09-19T09:28:00;4.62;;;1.20;;
72205;SDS011;60111;48.286;7.812;2023-09-19T09:30:39;3.15;;;1.12;;
72205;SDS011;60111;48.286;7.812;2023-09-19T09:33:12;5.90;;;1.10;;
72205;SDS011;60111;48.286;7.812;2023-09-19T09:35:50;3.55;;;1.40;;
72205;SDS011;60111;48.286;7.812;2023-09-19T09:38:27;1.95;;;1.20;;
72205;SDS011;60111;48.286;7.812;2023-09-19T09:41:02;5.03;;;1.30;;
72205;SDS011;60111;48.286;7.812;2023-09-19T09:43:37;3.55;;;1.25;;
72205;SDS011;60111;48.286;7.812;2023-09-19T09:49:04;2.25;;;1.15;;
72205;SDS011;60111;48.286;7.812;2023-09-19T09:51:35;2.50;;;1.30;;
72205;SDS011;60111;48.286;7.812;2023-09-19T09:54:10;2.22;;;1.30;;
72205;SDS011;60111;48.286;7.812;2023-09-19T09:56:54;3.10;;;1.10;;
72205;SDS011;60111;48.286;7.812;2023-09-19T09:59:43;2.15;;;1.10;;
72205;SDS011;60111;48.286;7.812;2023-09-19T10:02:18;4.22;;;1.27;;
72205;SDS011;60111;48.286;7.812;2023-09-19T10:04:58;3.00;;;1.27;;
72205;SDS011;60111;48.286;7.812;2023-09-19T10:07:41;1.77;;;1.27;;
72205;SDS011;60111;48.286;7.812;2023-09-19T10:10:15;1.53;;;0.97;;
72205;SDS011;60111;48.286;7.812;2023-09-19T10:12:52;3.08;;;1.12;;
72205;SDS011;60111;48.286;7.812;2023-09-19T10:15:31;2.02;;;1.00;;
72205;SDS011;60111;48.286;7.812;2023-09-19T10:18:04;2.92;;;1.32;;
72205;SDS011;60111;48.286;7.812;2023-09-19T10:20:39;3.55;;;1.20;;
72205;SDS011;60111;48.286;7.812;2023-09-19T10:23:13;1.52;;;1.22;;
72205;SDS011;60111;48.286;7.812;2023-09-19T10:25:49;2.17;;;1.37;;
72205;SDS011;60111;48.286;7.812;2023-09-19T10:28:23;1.37;;;1.10;;
72205;SDS011;60111;48.286;7.812;2023-09-19T10:30:58;4.13;;;1.30;;
72205;SDS011;60111;48.286;7.812;2023-09-19T10:33:35;3.83;;;1.17;;
72205;SDS011;60111;48.286;7.812;2023-09-19T10:36:12;2.05;;;1.20;;
72205;SDS011;60111;48.286;7.812;2023-09-19T10:38:46;2.47;;;1.20;;
72205;SDS011;60111;48.286;7.812;2023-09-19T10:41:21;2.90;;;1.10;;
72205;SDS011;60111;48.286;7.812;2023-09-19T10:43:54;1.83;;;1.10;;
72205;SDS011;60111;48.286;7.812;2023-09-19T10:46:31;1.77;;;1.10;;
72205;SDS011;60111;48.286;7.812;2023-09-19T10:49:04;2.65;;;1.22;;
72205;SDS011;60111;48.286;7.812;2023-09-19T10:51:41;2.20;;;1.10;;
72205;SDS011;60111;48.286;7.812;2023-09-19T10:54:20;2.75;;;1.50;;
72205;SDS011;60111;48.286;7.812;2023-09-19T10:56:53;2.70;;;1.02;;
72205;SDS011;60111;48.286;7.812;2023-09-19T10:59:28;2.25;;;1.00;;
72205;SDS011;60111;48.286;7.812;2023-09-19T11:02:16;3.40;;;1.30;;
72205;SDS011;60111;48.286;7.812;2023-09-19T11:04:49;1.77;;;1.20;;
72205;SDS011;60111;48.286;7.812;2023-09-19T11:07:23;2.33;;;1.10;;
72205;SDS011;60111;48.286;7.812;2023-09-19T11:09:56;1.93;;;1.10;;
72205;SDS011;60111;48.286;7.812;2023-09-19T11:15:07;1.82;;;1.10;;
72205;SDS011;60111;48.286;7.812;2023-09-19T11:17:42;2.10;;;0.90;;
72205;SDS011;60111;48.286;7.812;2023-09-19T11:20:18;1.87;;;1.12;;
72205;SDS011;60111;48.286;7.812;2023-09-19T11:23:16;5.08;;;1.27;;
72205;SDS011;60111;48.286;7.812;2023-09-19T11:25:46;1.92;;;0.90;;
72205;SDS011;60111;48.286;7.812;2023-09-19T11:30:58;2.47;;;1.07;;
72205;SDS011;60111;48.286;7.812;2023-09-19T11:33:33;1.93;;;0.90;;
72205;SDS011;60111;48.286;7.812;2023-09-19T11:36:09;7.17;;;0.95;;
72205;SDS011;60111;48.286;7.812;2023-09-19T11:49:31;2.98;;;1.00;;
72205;SDS011;60111;48.286;7.812;2023-09-19T11:52:04;3.47;;;0.98;;
72205;SDS011;60111;48.286;7.812;2023-09-19T11:54:39;1.30;;;0.98;;
72205;SDS011;60111;48.286;7.812;2023-09-19T11:57:13;2.20;;;1.00;;
72205;SDS011;60111;48.286;7.812;2023-09-19T11:59:50;1.62;;;0.70;;
72205;SDS011;60111;48.286;7.812;2023-09-19T12:05:00;2.55;;;1.10;;
72205;SDS011;60111;48.286;7.812;2023-09-19T12:07:41;1.30;;;0.93;;
72205;SDS011;60111;48.286;7.812;2023-09-19T12:10:09;3.02;;;0.93;;
72205;SDS011;60111;48.286;7.812;2023-09-19T12:12:49;2.83;;;0.90;;
72205;SDS011;60111;48.286;7.812;2023-09-19T12:15:23;2.13;;;0.90;;
72205;SDS011;60111;48.286;7.812;2023-09-19T12:18:01;0.95;;;0.90;;
72205;SDS011;60111;48.286;7.812;2023-09-19T12:20:42;2.50;;;0.90;;
72205;SDS011;60111;48.286;7.812;2023-09-19T12:23:17;2.00;;;1.00;;
72205;SDS011;60111;48.286;7.812;2023-09-19T12:25:50;0.70;;;0.70;;
72205;SDS011;60111;48.286;7.812;2023-09-19T12:28:26;2.17;;;1.00;;
72205;SDS011;60111;48.286;7.812;2023-09-19T12:31:06;1.97;;;1.00;;
72205;SDS011;60111;48.286;7.812;2023-09-19T12:33:39;2.30;;;0.80;;
72205;SDS011;60111;48.286;7.812;2023-09-19T12:36:22;1.00;;;0.80;;
72205;SDS011;60111;48.286;7.812;2023-09-19T12:38:55;1.70;;;1.00;;
72205;SDS011;60111;48.286;7.812;2023-09-19T12:41:31;2.33;;;0.90;;
72205;SDS011;60111;48.286;7.812;2023-09-19T12:44:04;0.95;;;0.85;;
72205;SDS011;60111;48.286;7.812;2023-09-19T12:46:39;0.72;;;0.72;;
72205;SDS011;60111;48.286;7.812;2023-09-19T12:49:18;5.35;;;0.82;;
72205;SDS011;60111;48.286;7.812;2023-09-19T12:51:54;1.87;;;0.83;;
72205;SDS011;60111;48.286;7.812;2023-09-19T12:54:38;0.90;;;0.80;;
72205;SDS011;60111;48.286;7.812;2023-09-19T12:57:23;1.50;;;0.90;;
72205;SDS011;60111;48.286;7.812;2023-09-19T12:59:51;1.10;;;0.72;;
72205;SDS011;60111;48.286;7.812;2023-09-19T13:02:25;1.27;;;0.85;;
72205;SDS011;60111;48.286;7.812;2023-09-19T13:04:59;0.90;;;0.60;;
72205;SDS011;60111;48.286;7.812;2023-09-19T13:07:40;1.82;;;0.90;;
72205;SDS011;60111;48.286;7.812;2023-09-19T13:12:51;1.20;;;0.70;;
72205;SDS011;60111;48.286;7.812;2023-09-19T13:15:23;1.00;;;0.70;;
72205;SDS011;60111;48.286;7.812;2023-09-19T13:17:59;2.00;;;0.88;;
72205;SDS011;60111;48.286;7.812;2023-09-19T13:20:34;0.68;;;0.60;;
72205;SDS011;60111;48.286;7.812;2023-09-19T13:23:09;3.45;;;0.80;;
72205;SDS011;60111;48.286;7.812;2023-09-19T13:25:44;5.47;;;1.10;;
72205;SDS011;60111;48.286;7.812;2023-09-19T13:28:18;1.87;;;0.75;;
72205;SDS011;60111;48.286;7.812;2023-09-19T13:30:51;2.58;;;0.90;;
72205;SDS011;60111;48.286;7.812;2023-09-19T13:33:23;1.73;;;0.93;;
72205;SDS011;60111;48.286;7.812;2023-09-19T13:35:57;2.10;;;1.10;;
72205;SDS011;60111;48.286;7.812;2023-09-19T13:38:29;1.30;;;0.70;;
72205;SDS011;60111;48.286;7.812;2023-09-19T13:41:02;1.65;;;0.90;;
72205;SDS011;60111;48.286;7.812;2023-09-19T13:43:34;4.40;;;0.95;;
72205;SDS011;60111;48.286;7.812;2023-09-19T13:46:08;0.70;;;0.70;;
72205;SDS011;60111;48.286;7.812;2023-09-19T13:48:43;2.73;;;0.80;;
72205;SDS011;60111;48.286;7.812;2023-09-19T13:51:15;1.05;;;0.75;;
72205;SDS011;60111;48.286;7.812;2023-09-19T13:53:49;1.67;;;0.90;;
72205;SDS011;60111;48.286;7.812;2023-09-19T13:56:22;1.50;;;0.70;;
72205;SDS011;60111;48.286;7.812;2023-09-19T13:58:55;2.70;;;0.80;;
72205;SDS011;60111;48.286;7.812;2023-09-19T14:01:28;1.47;;;0.80;;
72205;SDS011;60111;48.286;7.812;2023-09-19T14:04:01;3.27;;;1.00;;
72205;SDS011;60111;48.286;7.812;2023-09-19T14:06:33;2.22;;;0.90;;
72205;SDS011;60111;48.286;7.812;2023-09-19T14:09:09;0.70;;;0.60;;
72205;SDS011;60111;48.286;7.812;2023-09-19T14:11:42;1.82;;;0.72;;
72205;SDS011;60111;48.286;7.812;2023-09-19T14:14:16;1.22;;;0.70;;
72205;SDS011;60111;48.286;7.812;2023-09-19T14:16:49;3.15;;;0.90;;
72205;SDS011;60111;48.286;7.812;2023-09-19T14:21:55;1.30;;;0.80;;
72205;SDS011;60111;48.286;7.812;2023-09-19T14:24:28;1.10;;;0.90;;
72205;SDS011;60111;48.286;7.812;2023-09-19T14:27:00;2.25;;;1.07;;
72205;SDS011;60111;48.286;7.812;2023-09-19T14:29:34;2.35;;;0.85;;
72205;SDS011;60111;48.286;7.812;2023-09-19T14:32:07;1.43;;;1.00;;
72205;SDS011;60111;48.286;7.812;2023-09-19T14:34:39;2.35;;;1.20;;
72205;SDS011;60111;48.286;7.812;2023-09-19T14:39:47;0.90;;;0.90;;
72205;SDS011;60111;48.286;7.812;2023-09-19T14:42:19;1.72;;;1.00;;
72205;SDS011;60111;48.286;7.812;2023-09-19T14:44:52;1.42;;;1.07;;
72205;SDS011;60111;48.286;7.812;2023-09-19T14:47:25;1.83;;;1.07;;
72205;SDS011;60111;48.286;7.812;2023-09-19T14:49:59;2.65;;;1.00;;
72205;SDS011;60111;48.286;7.812;2023-09-19T14:52:35;2.97;;;0.90;;
72205;SDS011;60111;48.286;7.812;2023-09-19T14:55:07;6.42;;;1.20;;
72205;SDS011;60111;48.286;7.812;2023-09-19T14:57:42;1.47;;;0.95;;
72205;SDS011;60111;48.286;7.812;2023-09-19T15:00:16;2.45;;;1.15;;
72205;SDS011;60111;48.286;7.812;2023-09-19T15:02:51;1.05;;;0.90;;
72205;SDS011;60111;48.286;7.812;2023-09-19T15:05:25;1.90;;;1.32;;
72205;SDS011;60111;48.286;7.812;2023-09-19T15:08:00;5.33;;;1.87;;
72205;SDS011;60111;48.286;7.812;2023-09-19T15:10:33;1.82;;;1.00;;
72205;SDS011;60111;48.286;7.812;2023-09-19T15:13:06;3.03;;;1.50;;
72205;SDS011;60111;48.286;7.812;2023-09-19T15:15:39;1.92;;;1.30;;
72205;SDS011;60111;48.286;7.812;2023-09-19T15:18:13;1.67;;;1.30;;
72205;SDS011;60111;48.286;7.812;2023-09-19T15:20:46;1.75;;;1.20;;
72205;SDS011;60111;48.286;7.812;2023-09-19T15:23:19;2.63;;;1.20;;
72205;SDS011;60111;48.286;7.812;2023-09-19T15:25:52;1.60;;;1.20;;
72205;SDS011;60111;48.286;7.812;2023-09-19T15:28:26;1.80;;;1.20;;
72205;SDS011;60111;48.286;7.812;2023-09-19T15:31:04;2.02;;;1.40;;
72205;SDS011;60111;48.286;7.812;2023-09-19T15:33:39;4.72;;;1.12;;
72205;SDS011;60111;48.286;7.812;2023-09-19T15:36:13;1.40;;;1.30;;
72205;SDS011;60111;48.286;7.812;2023-09-19T15:39:05;4.87;;;1.22;;
72205;SDS011;60111;48.286;7.812;2023-09-19T15:41:41;4.37;;;1.43;;
72205;SDS011;60111;48.286;7.812;2023-09-19T15:44:16;5.97;;;1.77;;
72205;SDS011;60111;48.286;7.812;2023-09-19T15:46:50;3.02;;;1.27;;
72205;SDS011;60111;48.286;7.812;2023-09-19T15:49:22;1.62;;;1.20;;
72205;SDS011;60111;48.286;7.812;2023-09-19T15:51:55;2.33;;;1.30;;
72205;SDS011;60111;48.286;7.812;2023-09-19T15:54:27;2.37;;;1.32;;
72205;SDS011;60111;48.286;7.812;2023-09-19T15:57:00;2.30;;;1.40;;
72205;SDS011;60111;48.286;7.812;2023-09-19T15:59:32;3.70;;;1.20;;
72205;SDS011;60111;48.286;7.812;2023-09-19T16:02:07;1.50;;;1.30;;
72205;SDS011;60111;48.286;7.812;2023-09-19T16:04:39;1.77;;;1.22;;
72205;SDS011;60111;48.286;7.812;2023-09-19T16:09:46;3.02;;;1.00;;
72205;SDS011;60111;48.286;7.812;2023-09-19T16:12:18;1.60;;;1.30;;
72205;SDS011;60111;48.286;7.812;2023-09-19T16:14:51;3.08;;;1.60;;
72205;SDS011;60111;48.286;7.812;2023-09-19T16:17:24;2.03;;;1.40;;
72205;SDS011;60111;48.286;7.812;2023-09-19T16:19:57;1.65;;;1.20;;
72205;SDS011;60111;48.286;7.812;2023-09-19T16:22:29;1.90;;;1.40;;
72205;SDS011;60111;48.286;7.812;2023-09-19T16:25:02;3.37;;;1.40;;
72205;SDS011;60111;48.286;7.812;2023-09-19T16:27:35;2.17;;;1.40;;
72205;SDS011;60111;48.286;7.812;2023-09-19T16:30:09;2.90;;;1.37;;
72205;SDS011;60111;48.286;7.812;2023-09-19T16:32:42;1.67;;;1.25;;
72205;SDS011;60111;48.286;7.812;2023-09-19T16:35:15;4.65;;;1.40;;
72205;SDS011;60111;48.286;7.812;2023-09-19T16:37:48;3.45;;;1.50;;
72205;SDS011;60111;48.286;7.812;2023-09-19T16:40:20;2.45;;;1.45;;
72205;SDS011;60111;48.286;7.812;2023-09-19T16:42:53;1.60;;;1.30;;
72205;SDS011;60111;48.286;7.812;2023-09-19T16:45:26;2.10;;;1.30;;